sensor_id;sensor_type;location;lat;lon;timestamp;pressure;altitude;pressure_sealevel;temperature;humidity
28344;BME280;15597;50.914;6.638;2023-03-19T00:02:21;100409.91;;;15.83;52.99
28344;BME280;15597;50.914;6.638;2023-03-19T00:04:47;100408.34;;;15.79;52.99
28344;BME280;15597;50.914;6.638;2023-03-19T00:07:13;100410.28;;;15.75;53.10
28344;BME280;15597;50.914;6.638;2023-03-19T00:09:40;100398.06;;;15.73;53.12
28344;BME280;15597;50.914;6.638;2023-03-19T00:12:06;100406.13;;;15.70;53.17
28344;BME280;15597;50.914;6.638;2023-03-19T00:14:32;100393.94;;;15.67;53.21
28344;BME280;15597;50.914;6.638;2023-03-19T00:16:58;100403.78;;;15.63;53.23
28344;BME280;15597;50.914;6.638;2023-03-19T00:19:23;100401.22;;;15.62;53.38
28344;BME280;15597;50.914;6.638;2023-03-19T00:21:49;100403.00;;;15.61;53.11
28344;BME280;15597;50.914;6.638;2023-03-19T00:24:15;100408.34;;;15.60;53.14
28344;BME280;15597;50.914;6.638;2023-03-19T00:26:42;100407.47;;;15.59;53.32
28344;BME280;15597;50.914;6.638;2023-03-19T00:29:07;100409.31;;;15.57;53.09
28344;BME280;15597;50.914;6.638;2023-03-19T00:31:33;100405.75;;;15.58;53.14
28344;BME280;15597;50.914;6.638;2023-03-19T00:34:00;100406.63;;;15.59;53.05
28344;BME280;15597;50.914;6.638;2023-03-19T00:36:27;100406.78;;;15.56;52.96
28344;BME280;15597;50.914;6.638;2023-03-19T00:38:56;100401.63;;;15.53;53.28
28344;BME280;15597;50.914;6.638;2023-03-19T00:41:22;100393.94;;;15.48;53.40
28344;BME280;15597;50.914;6.638;2023-03-19T00:43:52;100400.34;;;15.42;53.69
28344;BME280;15597;50.914;6.638;2023-03-19T00:46:18;100394.34;;;15.39;53.55
28344;BME280;15597;50.914;6.638;2023-03-19T00:48:44;100391.91;;;15.34;53.61
28344;BME280;15597;50.914;6.638;2023-03-19T00:51:10;100393.75;;;15.32;53.63
28344;BME280;15597;50.914;6.638;2023-03-19T00:53:37;100400.88;;;15.30;53.41
28344;BME280;15597;50.914;6.638;2023-03-19T00:56:04;100394.75;;;15.29;53.55
28344;BME280;15597;50.914;6.638;2023-03-19T00:58:32;100398.19;;;15.31;53.41
28344;BME280;15597;50.914;6.638;2023-03-19T01:00:58;100397.31;;;15.31;53.45
28344;BME280;15597;50.914;6.638;2023-03-19T01:03:23;100396.47;;;15.30;53.50
28344;BME280;15597;50.914;6.638;2023-03-19T01:05:49;100410.56;;;15.29;53.49
28344;BME280;15597;50.914;6.638;2023-03-19T01:08:16;100405.44;;;15.26;53.53
28344;BME280;15597;50.914;6.638;2023-03-19T01:10:42;100403.84;;;15.22;53.67
28344;BME280;15597;50.914;6.638;2023-03-19T01:13:09;100399.56;;;15.19;53.50
28344;BME280;15597;50.914;6.638;2023-03-19T01:15:39;100405.06;;;15.15;53.37
28344;BME280;15597;50.914;6.638;2023-03-19T01:18:05;100402.41;;;15.15;53.25
28344;BME280;15597;50.914;6.638;2023-03-19T01:20:33;100396.41;;;15.11;53.50
28344;BME280;15597;50.914;6.638;2023-03-19T01:22:58;100400.09;;;15.07;53.13
28344;BME280;15597;50.914;6.638;2023-03-19T01:25:26;100401.09;;;15.04;53.48
28344;BME280;15597;50.914;6.638;2023-03-19T01:27:59;100397.81;;;14.99;53.28
28344;BME280;15597;50.914;6.638;2023-03-19T01:30:26;100399.72;;;14.96;53.70
28344;BME280;15597;50.914;6.638;2023-03-19T01:33:09;100392.94;;;14.90;54.02
28344;BME280;15597;50.914;6.638;2023-03-19T01:35:59;100394.97;;;14.83;54.54
28344;BME280;15597;50.914;6.638;2023-03-19T01:38:33;100384.69;;;14.77;54.69
28344;BME280;15597;50.914;6.638;2023-03-19T01:41:03;100384.88;;;14.72;54.90
28344;BME280;15597;50.914;6.638;2023-03-19T01:43:30;100389.34;;;14.70;54.99
28344;BME280;15597;50.914;6.638;2023-03-19T01:51:02;100389.00;;;14.57;55.47
28344;BME280;15597;50.914;6.638;2023-03-19T01:53:57;100392.47;;;14.58;55.31
28344;BME280;15597;50.914;6.638;2023-03-19T01:56:39;100391.41;;;14.62;55.28
28344;BME280;15597;50.914;6.638;2023-03-19T01:59:29;100394.03;;;14.62;54.86
28344;BME280;15597;50.914;6.638;2023-03-19T02:02:33;100388.78;;;14.62;55.46
28344;BME280;15597;50.914;6.638;2023-03-19T02:05:13;100390.38;;;14.66;54.86
28344;BME280;15597;50.914;6.638;2023-03-19T02:07:42;100387.72;;;14.66;55.52
28344;BME280;15597;50.914;6.638;2023-03-19T02:10:11;100386.94;;;14.64;55.22
28344;BME280;15597;50.914;6.638;2023-03-19T02:12:38;100385.22;;;14.63;55.34
28344;BME280;15597;50.914;6.638;2023-03-19T02:15:04;100379.16;;;14.61;55.73
28344;BME280;15597;50.914;6.638;2023-03-19T02:17:30;100386.34;;;14.57;55.67
28344;BME280;15597;50.914;6.638;2023-03-19T02:22:35;100386.47;;;14.54;55.49
28344;BME280;15597;50.914;6.638;2023-03-19T02:25:27;100387.56;;;14.49;55.74
28344;BME280;15597;50.914;6.638;2023-03-19T02:27:56;100388.25;;;14.54;55.99
28344;BME280;15597;50.914;6.638;2023-03-19T02:30:28;100391.75;;;14.54;55.87
28344;BME280;15597;50.914;6.638;2023-03-19T02:32:56;100388.91;;;14.59;55.63
28344;BME280;15597;50.914;6.638;2023-03-19T02:35:22;100388.91;;;14.59;55.60
28344;BME280;15597;50.914;6.638;2023-03-19T02:37:48;100387.19;;;14.58;55.77
28344;BME280;15597;50.914;6.638;2023-03-19T02:40:23;100391.78;;;14.53;55.64
28344;BME280;15597;50.914;6.638;2023-03-19T02:42:50;100390.88;;;14.54;56.12
28344;BME280;15597;50.914;6.638;2023-03-19T02:45:16;100382.19;;;14.52;55.82
28344;BME280;15597;50.914;6.638;2023-03-19T02:47:42;100380.47;;;14.51;55.88
28344;BME280;15597;50.914;6.638;2023-03-19T02:50:08;100385.75;;;14.51;55.59
28344;BME280;15597;50.914;6.638;2023-03-19T02:52:34;100385.75;;;14.51;55.82
28344;BME280;15597;50.914;6.638;2023-03-19T02:55:00;100392.72;;;14.52;55.67
28344;BME280;15597;50.914;6.638;2023-03-19T02:57:26;100385.75;;;14.51;56.04
28344;BME280;15597;50.914;6.638;2023-03-19T02:59:52;100398.84;;;14.52;55.92
28344;BME280;15597;50.914;6.638;2023-03-19T03:02:18;100385.59;;;14.54;55.76
28344;BME280;15597;50.914;6.638;2023-03-19T03:04:46;100390.94;;;14.52;55.62
28344;BME280;15597;50.914;6.638;2023-03-19T03:07:12;100387.44;;;14.52;55.60
28344;BME280;15597;50.914;6.638;2023-03-19T03:09:37;100397.97;;;14.52;55.85
28344;BME280;15597;50.914;6.638;2023-03-19T03:12:03;100396.28;;;14.51;55.84
28344;BME280;15597;50.914;6.638;2023-03-19T03:14:30;100392.84;;;14.49;55.85
28344;BME280;15597;50.914;6.638;2023-03-19T03:16:55;100400.63;;;14.52;55.82
28344;BME280;15597;50.914;6.638;2023-03-19T03:19:21;100394.44;;;14.53;55.86
28344;BME280;15597;50.914;6.638;2023-03-19T03:21:48;100397.13;;;14.51;55.58
28344;BME280;15597;50.914;6.638;2023-03-19T03:24:13;100396.28;;;14.51;55.75
28344;BME280;15597;50.914;6.638;2023-03-19T03:26:40;100398.06;;;14.50;55.77
28344;BME280;15597;50.914;6.638;2023-03-19T03:29:07;100409.31;;;14.54;55.42
28344;BME280;15597;50.914;6.638;2023-03-19T03:31:33;100409.13;;;14.58;55.39
28344;BME280;15597;50.914;6.638;2023-03-19T03:33:59;100417.75;;;14.62;55.29
28344;BME280;15597;50.914;6.638;2023-03-19T03:36:26;100406.28;;;14.63;54.83
28344;BME280;15597;50.914;6.638;2023-03-19T03:38:52;100418.53;;;14.64;55.30
28344;BME280;15597;50.914;6.638;2023-03-19T03:41:18;100418.53;;;14.64;54.82
28344;BME280;15597;50.914;6.638;2023-03-19T03:43:44;100418.63;;;14.63;54.84
28344;BME280;15597;50.914;6.638;2023-03-19T03:46:10;100416.94;;;14.60;54.71
28344;BME280;15597;50.914;6.638;2023-03-19T03:48:36;100422.34;;;14.57;54.96
28344;BME280;15597;50.914;6.638;2023-03-19T03:51:02;100420.63;;;14.56;55.22
28344;BME280;15597;50.914;6.638;2023-03-19T03:53:28;100415.50;;;14.53;54.86
28344;BME280;15597;50.914;6.638;2023-03-19T03:55:54;100416.53;;;14.49;55.41
28344;BME280;15597;50.914;6.638;2023-03-19T03:58:23;100412.31;;;14.44;55.22
28344;BME280;15597;50.914;6.638;2023-03-19T04:00:49;100416.88;;;14.41;55.03
28344;BME280;15597;50.914;6.638;2023-03-19T04:03:15;100420.41;;;14.40;55.71
28344;BME280;15597;50.914;6.638;2023-03-19T04:05:42;100412.56;;;14.38;55.47
28344;BME280;15597;50.914;6.638;2023-03-19T04:08:08;100416.13;;;14.37;55.36
28344;BME280;15597;50.914;6.638;2023-03-19T04:10:34;100412.69;;;14.35;55.39
28344;BME280;15597;50.914;6.638;2023-03-19T04:13:01;100412.81;;;14.32;55.57
28344;BME280;15597;50.914;6.638;2023-03-19T04:15:29;100416.38;;;14.31;55.45
28344;BME280;15597;50.914;6.638;2023-03-19T04:17:56;100422.50;;;14.31;55.64
28344;BME280;15597;50.914;6.638;2023-03-19T04:20:23;100423.34;;;14.32;55.29
28344;BME280;15597;50.914;6.638;2023-03-19T04:22:48;100430.28;;;14.35;55.33
28344;BME280;15597;50.914;6.638;2023-03-19T04:25:14;100431.06;;;14.37;55.46
28344;BME280;15597;50.914;6.638;2023-03-19T04:27:39;100429.28;;;14.37;55.44
28344;BME280;15597;50.914;6.638;2023-03-19T04:30:07;100419.53;;;14.39;55.57
28344;BME280;15597;50.914;6.638;2023-03-19T04:32:34;100430.94;;;14.40;55.68
28344;BME280;15597;50.914;6.638;2023-03-19T04:35:00;100431.88;;;14.39;55.24
28344;BME280;15597;50.914;6.638;2023-03-19T04:37:25;100435.47;;;14.36;55.41
28344;BME280;15597;50.914;6.638;2023-03-19T04:39:52;100446.00;;;14.36;55.50
28344;BME280;15597;50.914;6.638;2023-03-19T04:42:19;100446.84;;;14.37;55.44
28344;BME280;15597;50.914;6.638;2023-03-19T04:45:02;100444.28;;;14.35;55.80
28344;BME280;15597;50.914;6.638;2023-03-19T04:47:28;100440.72;;;14.36;55.42
28344;BME280;15597;50.914;6.638;2023-03-19T04:49:56;100448.63;;;14.36;55.88
28344;BME280;15597;50.914;6.638;2023-03-19T04:52:24;100449.53;;;14.35;55.47
28344;BME280;15597;50.914;6.638;2023-03-19T04:54:49;100448.69;;;14.35;55.53
28344;BME280;15597;50.914;6.638;2023-03-19T04:57:15;100447.69;;;14.37;55.68
28344;BME280;15597;50.914;6.638;2023-03-19T04:59:43;100446.75;;;14.40;55.96
28344;BME280;15597;50.914;6.638;2023-03-19T05:02:11;100441.41;;;14.41;55.89
28344;BME280;15597;50.914;6.638;2023-03-19T05:04:38;100443.91;;;14.44;55.80
28344;BME280;15597;50.914;6.638;2023-03-19T05:07:07;100445.56;;;14.47;55.38
28344;BME280;15597;50.914;6.638;2023-03-19T05:09:34;100446.38;;;14.49;55.45
28344;BME280;15597;50.914;6.638;2023-03-19T05:12:00;100455.84;;;14.53;54.99
28344;BME280;15597;50.914;6.638;2023-03-19T05:14:26;100451.31;;;14.57;55.23
28344;BME280;15597;50.914;6.638;2023-03-19T05:16:59;100446.84;;;14.59;55.08
28344;BME280;15597;50.914;6.638;2023-03-19T05:19:32;100450.25;;;14.61;55.03
28344;BME280;15597;50.914;6.638;2023-03-19T05:21:59;100461.66;;;14.61;55.02
28344;BME280;15597;50.914;6.638;2023-03-19T05:24:26;100448.44;;;14.63;55.03
28344;BME280;15597;50.914;6.638;2023-03-19T05:26:53;100449.34;;;14.62;55.00
28344;BME280;15597;50.914;6.638;2023-03-19T05:29:38;100452.09;;;14.59;54.97
28344;BME280;15597;50.914;6.638;2023-03-19T05:32:22;100461.66;;;14.61;54.70
28344;BME280;15597;50.914;6.638;2023-03-19T05:34:48;100452.09;;;14.59;55.03
28344;BME280;15597;50.914;6.638;2023-03-19T05:37:14;100459.19;;;14.57;54.79
28344;BME280;15597;50.914;6.638;2023-03-19T05:39:44;100466.31;;;14.55;54.51
28344;BME280;15597;50.914;6.638;2023-03-19T05:42:10;100466.44;;;14.52;55.19
28344;BME280;15597;50.914;6.638;2023-03-19T05:44:36;100470.97;;;14.48;54.86
28344;BME280;15597;50.914;6.638;2023-03-19T05:47:34;100484.31;;;14.43;55.25
28344;BME280;15597;50.914;6.638;2023-03-19T05:50:00;100485.19;;;14.44;55.28
28344;BME280;15597;50.914;6.638;2023-03-19T05:52:26;100487.75;;;14.45;54.97
28344;BME280;15597;50.914;6.638;2023-03-19T05:54:55;100482.47;;;14.45;54.95
28344;BME280;15597;50.914;6.638;2023-03-19T05:57:41;100487.63;;;14.49;55.24
28344;BME280;15597;50.914;6.638;2023-03-19T06:00:20;100486.69;;;14.50;55.08
28344;BME280;15597;50.914;6.638;2023-03-19T06:02:46;100483.94;;;14.53;55.28
28344;BME280;15597;50.914;6.638;2023-03-19T06:05:33;100499.75;;;14.53;55.03
28344;BME280;15597;50.914;6.638;2023-03-19T06:08:06;100494.59;;;14.50;55.04
28344;BME280;15597;50.914;6.638;2023-03-19T06:10:47;100502.75;;;14.43;55.53
28344;BME280;15597;50.914;6.638;2023-03-19T06:13:13;100505.50;;;14.40;55.25
28344;BME280;15597;50.914;6.638;2023-03-19T06:15:52;100511.78;;;14.36;55.56
28344;BME280;15597;50.914;6.638;2023-03-19T06:18:43;100504.09;;;14.31;55.31
28344;BME280;15597;50.914;6.638;2023-03-19T06:21:13;100511.09;;;14.31;55.83
28344;BME280;15597;50.914;6.638;2023-03-19T06:23:39;100508.47;;;14.31;55.49
28344;BME280;15597;50.914;6.638;2023-03-19T06:26:06;100512.81;;;14.32;55.57
28344;BME280;15597;50.914;6.638;2023-03-19T06:28:40;100516.25;;;14.34;55.45
28344;BME280;15597;50.914;6.638;2023-03-19T06:31:06;100507.44;;;14.35;55.66
28344;BME280;15597;50.914;6.638;2023-03-19T06:33:51;100496.91;;;14.35;55.36
28344;BME280;15597;50.914;6.638;2023-03-19T06:36:16;100508.19;;;14.39;55.17
28344;BME280;15597;50.914;6.638;2023-03-19T06:38:42;100502.81;;;14.42;55.46
28344;BME280;15597;50.914;6.638;2023-03-19T06:41:08;100507.09;;;14.44;55.33
28344;BME280;15597;50.914;6.638;2023-03-19T06:43:33;100507.88;;;14.46;55.41
28344;BME280;15597;50.914;6.638;2023-03-19T06:46:03;100515.78;;;14.46;55.24
28344;BME280;15597;50.914;6.638;2023-03-19T06:48:29;100511.38;;;14.47;55.23
28344;BME280;15597;50.914;6.638;2023-03-19T06:50:55;100525.47;;;14.46;55.56
28344;BME280;15597;50.914;6.638;2023-03-19T06:53:20;100530.78;;;14.44;55.63
28344;BME280;15597;50.914;6.638;2023-03-19T06:55:46;100523.00;;;14.41;55.66
28344;BME280;15597;50.914;6.638;2023-03-19T06:58:11;100531.81;;;14.40;55.85
28344;BME280;15597;50.914;6.638;2023-03-19T07:00:37;100522.28;;;14.38;55.59
28344;BME280;15597;50.914;6.638;2023-03-19T07:03:03;100523.91;;;14.40;55.93
28344;BME280;15597;50.914;6.638;2023-03-19T07:05:29;100533.53;;;14.41;55.53
28344;BME280;15597;50.914;6.638;2023-03-19T07:07:55;100535.25;;;14.42;55.44
28344;BME280;15597;50.914;6.638;2023-03-19T07:10:21;100536.97;;;14.43;55.85
28344;BME280;15597;50.914;6.638;2023-03-19T07:12:47;100532.56;;;14.44;55.49
28344;BME280;15597;50.914;6.638;2023-03-19T07:15:12;100543.94;;;14.44;55.82
28344;BME280;15597;50.914;6.638;2023-03-19T07:17:38;100551.78;;;14.46;55.66
28344;BME280;15597;50.914;6.638;2023-03-19T07:20:04;100552.63;;;14.46;55.70
28344;BME280;15597;50.914;6.638;2023-03-19T07:22:33;100549.09;;;14.48;55.78
28344;BME280;15597;50.914;6.638;2023-03-19T07:24:59;100555.28;;;14.46;55.95
28344;BME280;15597;50.914;6.638;2023-03-19T07:27:25;100561.34;;;14.49;55.74
28344;BME280;15597;50.914;6.638;2023-03-19T07:29:50;100569.19;;;14.50;56.15
28344;BME280;15597;50.914;6.638;2023-03-19T07:32:16;100562.09;;;14.52;55.75
28344;BME280;15597;50.914;6.638;2023-03-19T07:34:42;100559.38;;;14.54;55.71
28344;BME280;15597;50.914;6.638;2023-03-19T07:37:07;100557.53;;;14.56;55.89
28344;BME280;15597;50.914;6.638;2023-03-19T07:39:33;100562.69;;;14.59;56.25
28344;BME280;15597;50.914;6.638;2023-03-19T07:41:59;100559.13;;;14.60;55.98
28344;BME280;15597;50.914;6.638;2023-03-19T07:44:34;100560.84;;;14.61;56.24
28344;BME280;15597;50.914;6.638;2023-03-19T07:47:00;100562.56;;;14.62;56.09
28344;BME280;15597;50.914;6.638;2023-03-19T07:49:25;100569.44;;;14.66;55.96
28344;BME280;15597;50.914;6.638;2023-03-19T07:51:51;100565.78;;;14.70;56.07
28344;BME280;15597;50.914;6.638;2023-03-19T07:54:16;100572.66;;;14.74;55.79
28344;BME280;15597;50.914;6.638;2023-03-19T07:56:42;100568.38;;;14.72;55.97
28344;BME280;15597;50.914;6.638;2023-03-19T07:59:08;100562.34;;;14.68;55.70
28344;BME280;15597;50.914;6.638;2023-03-19T08:01:34;100570.22;;;14.68;55.76
28344;BME280;15597;50.914;6.638;2023-03-19T08:04:00;100569.31;;;14.69;55.77
28344;BME280;15597;50.914;6.638;2023-03-19T08:06:26;100571.00;;;14.72;56.08
28344;BME280;15597;50.914;6.638;2023-03-19T08:08:51;100569.22;;;14.72;55.86
28344;BME280;15597;50.914;6.638;2023-03-19T08:11:17;100567.47;;;14.73;55.95
28344;BME280;15597;50.914;6.638;2023-03-19T08:13:42;100574.38;;;14.75;55.76
28344;BME280;15597;50.914;6.638;2023-03-19T08:16:08;100572.63;;;14.76;56.15
28344;BME280;15597;50.914;6.638;2023-03-19T08:18:35;100572.66;;;14.74;56.17
28344;BME280;15597;50.914;6.638;2023-03-19T08:21:01;100581.34;;;14.77;55.88
28344;BME280;15597;50.914;6.638;2023-03-19T08:23:27;100578.72;;;14.77;56.09
28344;BME280;15597;50.914;6.638;2023-03-19T08:25:53;100576.09;;;14.77;55.98
28344;BME280;15597;50.914;6.638;2023-03-19T08:28:22;100578.59;;;14.80;56.51
28344;BME280;15597;50.914;6.638;2023-03-19T08:30:50;100583.69;;;14.84;56.12
28344;BME280;15597;50.914;6.638;2023-03-19T08:33:16;100588.84;;;14.87;56.20
28344;BME280;15597;50.914;6.638;2023-03-19T08:35:43;100581.75;;;14.89;56.31
28344;BME280;15597;50.914;6.638;2023-03-19T08:38:09;100591.31;;;14.92;56.11
28344;BME280;15597;50.914;6.638;2023-03-19T08:40:35;100589.59;;;14.91;55.91
28344;BME280;15597;50.914;6.638;2023-03-19T08:43:01;100589.59;;;14.91;55.86
28344;BME280;15597;50.914;6.638;2023-03-19T08:45:29;100583.41;;;14.92;56.22
28344;BME280;15597;50.914;6.638;2023-03-19T08:47:55;100594.75;;;14.94;56.17
28344;BME280;15597;50.914;6.638;2023-03-19T08:50:22;100587.63;;;14.96;56.12
28344;BME280;15597;50.914;6.638;2023-03-19T08:52:47;100589.34;;;14.97;56.61
28344;BME280;15597;50.914;6.638;2023-03-19T08:55:13;100583.97;;;15.00;56.47
28344;BME280;15597;50.914;6.638;2023-03-19T08:57:40;100582.13;;;15.02;56.33
28344;BME280;15597;50.914;6.638;2023-03-19T09:00:06;100576.91;;;15.01;56.40
28344;BME280;15597;50.914;6.638;2023-03-19T09:02:32;100574.13;;;15.04;56.93
28344;BME280;15597;50.914;6.638;2023-03-19T09:04:58;100583.50;;;15.11;56.66
28344;BME280;15597;50.914;6.638;2023-03-19T09:07:23;100587.72;;;15.15;56.57
28344;BME280;15597;50.914;6.638;2023-03-19T09:09:49;100585.78;;;15.21;56.71
28344;BME280;15597;50.914;6.638;2023-03-19T09:12:16;100592.50;;;15.28;56.39
28344;BME280;15597;50.914;6.638;2023-03-19T09:14:42;100593.25;;;15.31;56.43
28344;BME280;15597;50.914;6.638;2023-03-19T09:17:08;100592.25;;;15.34;56.37
28344;BME280;15597;50.914;6.638;2023-03-19T09:19:35;100587.66;;;15.39;56.46
28344;BME280;15597;50.914;6.638;2023-03-19T09:22:02;100582.31;;;15.41;56.05
28344;BME280;15597;50.914;6.638;2023-03-19T09:24:28;100593.78;;;15.40;56.16
28344;BME280;15597;50.914;6.638;2023-03-19T09:26:54;100599.06;;;15.40;56.56
28344;BME280;15597;50.914;6.638;2023-03-19T09:29:19;100597.16;;;15.43;56.41
28344;BME280;15597;50.914;6.638;2023-03-19T09:31:45;100601.44;;;15.46;56.34
28344;BME280;15597;50.914;6.638;2023-03-19T09:34:11;100597.88;;;15.47;56.12
28344;BME280;15597;50.914;6.638;2023-03-19T09:36:38;100604.06;;;15.46;56.39
28344;BME280;15597;50.914;6.638;2023-03-19T09:39:05;100604.03;;;15.47;56.25
28344;BME280;15597;50.914;6.638;2023-03-19T09:41:52;100602.50;;;15.42;56.59
28344;BME280;15597;50.914;6.638;2023-03-19T09:44:28;100605.13;;;15.42;56.67
28344;BME280;15597;50.914;6.638;2023-03-19T09:49:31;100609.69;;;15.38;56.81
28344;BME280;15597;50.914;6.638;2023-03-19T09:52:30;100616.06;;;15.32;56.84
28344;BME280;15597;50.914;6.638;2023-03-19T09:55:04;100612.38;;;15.37;56.95
28344;BME280;15597;50.914;6.638;2023-03-19T09:57:32;100607.84;;;15.40;57.05
28344;BME280;15597;50.914;6.638;2023-03-19T09:59:59;100608.31;;;15.50;57.01
28344;BME280;15597;50.914;6.638;2023-03-19T10:10:44;100612.41;;;15.78;56.78
28344;BME280;15597;50.914;6.638;2023-03-19T10:13:37;100623.59;;;15.83;56.77
28344;BME280;15597;50.914;6.638;2023-03-19T10:16:15;100619.03;;;15.88;56.62
28344;BME280;15597;50.914;6.638;2023-03-19T10:18:47;100621.34;;;15.96;56.40
28344;BME280;15597;50.914;6.638;2023-03-19T10:21:34;100622.22;;;15.97;56.38
28344;BME280;15597;50.914;6.638;2023-03-19T10:24:49;100621.16;;;16.01;56.22
28344;BME280;15597;50.914;6.638;2023-03-19T10:26:58;100627.34;;;16.00;56.17
28344;BME280;15597;50.914;6.638;2023-03-19T10:29:24;100617.66;;;16.00;56.17
28344;BME280;15597;50.914;6.638;2023-03-19T10:32:20;100624.59;;;16.03;56.50
28344;BME280;15597;50.914;6.638;2023-03-19T10:34:52;100621.59;;;16.11;56.19
28344;BME280;15597;50.914;6.638;2023-03-19T10:37:20;100623.13;;;16.16;56.25
28344;BME280;15597;50.914;6.638;2023-03-19T10:39:49;100633.53;;;16.19;56.03
28344;BME280;15597;50.914;6.638;2023-03-19T10:42:49;100634.47;;;16.18;56.31
28344;BME280;15597;50.914;6.638;2023-03-19T10:45:28;100635.13;;;16.24;56.26
28344;BME280;15597;50.914;6.638;2023-03-19T10:47:58;100632.53;;;16.22;56.12
28344;BME280;15597;50.914;6.638;2023-03-19T10:50:31;100643.03;;;16.24;56.48
28344;BME280;15597;50.914;6.638;2023-03-19T10:53:05;100643.81;;;16.26;56.68
28344;BME280;15597;50.914;6.638;2023-03-19T10:55:32;100651.38;;;16.33;56.77
28344;BME280;15597;50.914;6.638;2023-03-19T10:58:13;100648.75;;;16.33;56.69
28344;BME280;15597;50.914;6.638;2023-03-19T11:00:40;100646.75;;;16.39;56.52
28344;BME280;15597;50.914;6.638;2023-03-19T11:03:27;100647.81;;;16.34;56.82
28344;BME280;15597;50.914;6.638;2023-03-19T11:08:42;100637.72;;;16.44;56.81
28344;BME280;15597;50.914;6.638;2023-03-19T11:11:22;100640.34;;;16.44;56.56
28344;BME280;15597;50.914;6.638;2023-03-19T11:13:48;100634.78;;;16.50;56.47
28344;BME280;15597;50.914;6.638;2023-03-19T11:16:14;100637.44;;;16.50;56.27
28344;BME280;15597;50.914;6.638;2023-03-19T11:18:40;100638.31;;;16.51;56.11
28344;BME280;15597;50.914;6.638;2023-03-19T11:21:20;100633.16;;;16.48;56.37
28344;BME280;15597;50.914;6.638;2023-03-19T11:23:51;100632.44;;;16.44;56.59
28344;BME280;15597;50.914;6.638;2023-03-19T11:26:18;100634.78;;;16.50;56.42
28344;BME280;15597;50.914;6.638;2023-03-19T11:28:49;100639.16;;;16.52;56.31
28344;BME280;15597;50.914;6.638;2023-03-19T11:34:22;100644.28;;;16.55;56.88
28344;BME280;15597;50.914;6.638;2023-03-19T11:40:07;100645.00;;;16.77;56.58
28344;BME280;15597;50.914;6.638;2023-03-19T11:45:16;100633.75;;;16.74;56.67
28344;BME280;15597;50.914;6.638;2023-03-19T11:47:53;100634.28;;;16.80;56.57
28344;BME280;15597;50.914;6.638;2023-03-19T11:51:05;100636.72;;;16.85;56.62
28344;BME280;15597;50.914;6.638;2023-03-19T11:53:37;100643.28;;;16.96;56.14
28344;BME280;15597;50.914;6.638;2023-03-19T11:56:30;100637.06;;;16.98;56.07
28344;BME280;15597;50.914;6.638;2023-03-19T12:10:16;100631.91;;;17.32;55.15
28344;BME280;15597;50.914;6.638;2023-03-19T12:23:38;100620.81;;;17.43;55.35
28344;BME280;15597;50.914;6.638;2023-03-19T12:26:07;100626.41;;;17.54;55.40
28344;BME280;15597;50.914;6.638;2023-03-19T12:28:56;100620.34;;;17.52;55.13
28344;BME280;15597;50.914;6.638;2023-03-19T12:34:48;100624.63;;;17.55;54.92
28344;BME280;15597;50.914;6.638;2023-03-19T12:37:27;100622.81;;;17.55;54.33
28344;BME280;15597;50.914;6.638;2023-03-19T12:42:37;100620.66;;;17.63;54.29
28344;BME280;15597;50.914;6.638;2023-03-19T12:45:11;100617.69;;;17.70;53.85
28344;BME280;15597;50.914;6.638;2023-03-19T12:47:44;100619.72;;;17.64;53.53
28344;BME280;15597;50.914;6.638;2023-03-19T12:50:13;100626.56;;;17.69;53.58
28344;BME280;15597;50.914;6.638;2023-03-19T12:52:48;100619.25;;;17.74;53.32
28344;BME280;15597;50.914;6.638;2023-03-19T12:55:21;100622.59;;;17.77;52.94
28344;BME280;15597;50.914;6.638;2023-03-19T12:57:57;100620.78;;;17.78;53.06
28344;BME280;15597;50.914;6.638;2023-03-19T13:00:29;100625.78;;;17.84;52.89
28344;BME280;15597;50.914;6.638;2023-03-19T13:03:14;100625.78;;;17.84;52.76
28344;BME280;15597;50.914;6.638;2023-03-19T13:11:01;100633.88;;;17.81;52.94
28344;BME280;15597;50.914;6.638;2023-03-19T13:13:40;100633.88;;;17.81;52.76
28344;BME280;15597;50.914;6.638;2023-03-19T13:19:15;100644.00;;;17.73;53.32
28344;BME280;15597;50.914;6.638;2023-03-19T13:21:44;100636.06;;;17.73;53.48
28344;BME280;15597;50.914;6.638;2023-03-19T13:24:14;100631.53;;;17.57;53.91
28344;BME280;15597;50.914;6.638;2023-03-19T13:26:42;100630.00;;;17.71;54.13
28344;BME280;15597;50.914;6.638;2023-03-19T13:29:25;100632.25;;;17.78;54.11
28344;BME280;15597;50.914;6.638;2023-03-19T13:31:52;100630.59;;;17.93;54.43
28344;BME280;15597;50.914;6.638;2023-03-19T13:34:30;100629.31;;;18.02;54.53
28344;BME280;15597;50.914;6.638;2023-03-19T13:39:35;100622.19;;;18.20;53.82
28344;BME280;15597;50.914;6.638;2023-03-19T13:47:35;100623.69;;;18.42;54.60
28344;BME280;15597;50.914;6.638;2023-03-19T13:58:15;100612.75;;;18.48;54.16
28344;BME280;15597;50.914;6.638;2023-03-19T14:03:23;100617.44;;;18.43;53.40
28344;BME280;15597;50.914;6.638;2023-03-19T14:05:50;100616.72;;;18.23;53.98
28344;BME280;15597;50.914;6.638;2023-03-19T14:08:20;100613.16;;;18.24;53.88
28344;BME280;15597;50.914;6.638;2023-03-19T14:10:48;100609.41;;;18.29;53.60
28344;BME280;15597;50.914;6.638;2023-03-19T14:13:32;100615.69;;;18.26;53.69
28344;BME280;15597;50.914;6.638;2023-03-19T14:16:11;100626.13;;;18.29;53.67
28344;BME280;15597;50.914;6.638;2023-03-19T14:26:45;100623.19;;;18.51;52.66
28344;BME280;15597;50.914;6.638;2023-03-19T14:29:13;100625.50;;;18.58;52.63
28344;BME280;15597;50.914;6.638;2023-03-19T14:31:45;100624.66;;;18.57;52.46
28344;BME280;15597;50.914;6.638;2023-03-19T14:34:19;100628.25;;;18.56;52.36
28344;BME280;15597;50.914;6.638;2023-03-19T14:36:53;100627.38;;;18.56;51.98
28344;BME280;15597;50.914;6.638;2023-03-19T14:39:25;100633.78;;;18.51;51.88